Time;durP1;ratioP1;P1;durP2;ratioP2;P2;SDS_P1;SDS_P2;PMS_P1;PMS_P2;Temp;Humidity;BMP_temperature;BMP_pressure;BME280_temperature;BME280_humidity;BME280_pressure;Samples;Min_cycle;Max_cycle;Signal;HPM_P1;HPM_P2
2021/12/31 00:02:35;;;;;;;7.45;2.15;;;12.80;99.90;;;;;;7326740;32;20570;-63
2021/12/31 00:06:39;;;;;;;12.68;2.03;;;12.90;99.90;;;;;;7329375;32;20753;-64
2021/12/31 00:10:41;;;;;;;10.55;1.73;;;13.00;99.90;;;;;;7315989;32;20328;-64
2021/12/31 00:14:43;;;;;;;5.30;1.65;;;13.00;99.90;;;;;;7325921;32;20119;-64
2021/12/31 00:18:44;;;;;;;8.25;1.80;;;13.10;99.90;;;;;;7324542;32;20134;-65
2021/12/31 00:26:54;;;;;;;4.45;1.50;;;13.00;99.90;;;;;;7319919;32;20134;-64
2021/12/31 00:30:56;;;;;;;6.30;1.52;;;13.10;99.90;;;;;;7329388;32;20483;-63
2021/12/31 00:34:58;;;;;;;6.93;1.98;;;13.20;99.90;;;;;;7329723;32;20515;-64
2021/12/31 00:38:59;;;;;;;7.53;1.42;;;13.20;99.90;;;;;;7331218;32;20112;-64
2021/12/31 00:43:01;;;;;;;4.10;1.20;;;13.10;99.90;;;;;;7331753;32;20379;-64
2021/12/31 00:47:03;;;;;;;2.60;1.05;;;13.20;99.90;;;;;;7331551;32;20166;-64
2021/12/31 00:51:04;;;;;;;5.95;1.40;;;13.20;99.90;;;;;;7325519;32;20104;-63
2021/12/31 00:55:07;;;;;;;6.68;1.27;;;13.20;99.90;;;;;;7317896;32;20367;-63
2021/12/31 00:59:09;;;;;;;3.95;1.15;;;13.30;99.90;;;;;;7334726;32;20127;-63
2021/12/31 01:03:11;;;;;;;4.90;1.65;;;13.30;99.90;;;;;;7331260;32;20111;-64
2021/12/31 01:07:12;;;;;;;4.87;1.52;;;13.20;99.90;;;;;;7325077;32;20172;-64
2021/12/31 01:11:14;;;;;;;3.92;1.42;;;13.30;99.90;;;;;;7334437;32;20111;-64
2021/12/31 01:15:50;;;;;;;5.25;1.52;;;13.20;99.90;;;;;;7330049;32;20141;-64
2021/12/31 01:19:47;;;;;;;7.70;1.80;;;13.30;99.90;;;;;;7325850;32;20550;-64
2021/12/31 01:23:50;;;;;;;5.03;1.25;;;13.30;99.90;;;;;;7325240;32;20190;-63
2021/12/31 01:27:52;;;;;;;6.45;1.60;;;13.30;99.90;;;;;;7324311;32;20119;-64
2021/12/31 01:31:55;;;;;;;6.97;1.17;;;13.30;99.90;;;;;;7334936;32;20103;-64
2021/12/31 01:35:56;;;;;;;6.60;1.65;;;13.30;99.90;;;;;;7319878;32;20540;-63
2021/12/31 01:39:58;;;;;;;5.68;1.27;;;13.30;99.90;;;;;;7335277;32;20206;-63
2021/12/31 01:44:04;;;;;;;5.30;1.52;;;13.30;99.90;;;;;;7327418;32;20440;-63
2021/12/31 01:48:09;;;;;;;3.80;1.20;;;13.30;99.90;;;;;;7330083;32;20480;-63
2021/12/31 01:52:11;;;;;;;4.62;1.10;;;13.30;99.90;;;;;;7332928;32;20129;-64
2021/12/31 01:56:13;;;;;;;4.57;1.40;;;13.30;99.90;;;;;;7330216;32;20134;-64
2021/12/31 02:00:15;;;;;;;3.20;1.20;;;13.30;99.90;;;;;;7327373;32;20130;-64
2021/12/31 02:04:17;;;;;;;2.72;0.98;;;13.30;99.90;;;;;;7324733;32;20130;-63
2021/12/31 02:08:18;;;;;;;3.62;1.23;;;13.40;99.90;;;;;;7329116;32;20272;-64
2021/12/31 02:12:22;;;;;;;2.83;1.10;;;13.40;99.90;;;;;;7327429;32;20116;-63
2021/12/31 02:16:24;;;;;;;3.95;1.20;;;13.30;99.90;;;;;;7336116;32;20112;-63
2021/12/31 02:20:43;;;;;;;3.45;1.10;;;13.40;99.90;;;;;;7332112;32;20415;-63
2021/12/31 02:24:45;;;;;;;3.53;1.25;;;13.30;99.90;;;;;;7315879;32;20173;-64
2021/12/31 02:28:47;;;;;;;4.22;1.80;;;13.40;99.90;;;;;;7323775;32;20531;-64
2021/12/31 02:32:48;;;;;;;4.43;2.05;;;13.30;99.90;;;;;;7320109;32;20190;-63
2021/12/31 02:36:50;;;;;;;5.10;1.67;;;13.30;99.90;;;;;;7325355;32;20107;-63
2021/12/31 02:40:52;;;;;;;6.10;1.80;;;13.30;99.90;;;;;;7331681;32;20495;-63
2021/12/31 02:44:55;;;;;;;5.90;1.85;;;13.20;99.90;;;;;;7332796;32;20115;-63
2021/12/31 02:48:58;;;;;;;4.30;1.33;;;13.20;99.90;;;;;;7331126;32;20462;-63
2021/12/31 02:53:23;;;;;;;5.55;1.55;;;13.30;99.90;;;;;;7327298;32;20139;-64
2021/12/31 02:57:24;;;;;;;4.53;1.52;;;13.30;99.90;;;;;;7328017;32;20138;-63
2021/12/31 03:01:26;;;;;;;5.53;1.70;;;13.20;99.90;;;;;;7325050;32;20138;-63
2021/12/31 03:05:29;;;;;;;5.32;1.42;;;13.20;99.90;;;;;;7323535;32;20197;-63
2021/12/31 03:09:32;;;;;;;6.80;1.80;;;13.20;99.90;;;;;;7317765;32;20175;-63
2021/12/31 03:13:36;;;;;;;4.82;1.70;;;13.20;99.90;;;;;;7320620;32;20116;-63
2021/12/31 03:17:40;;;;;;;3.65;1.17;;;13.20;99.90;;;;;;7328848;32;20134;-63
2021/12/31 03:21:42;;;;;;;4.87;1.10;;;13.20;99.90;;;;;;7323788;32;20133;-63
2021/12/31 03:25:43;;;;;;;5.80;1.25;;;13.20;99.90;;;;;;7324250;32;20107;-63
2021/12/31 03:29:45;;;;;;;4.82;1.25;;;13.30;99.90;;;;;;7326097;32;20135;-63
2021/12/31 03:33:47;;;;;;;4.55;1.00;;;13.20;99.90;;;;;;7323182;32;20138;-63
2021/12/31 03:37:49;;;;;;;4.70;1.00;;;13.30;99.90;;;;;;7327434;32;20214;-63
2021/12/31 03:41:50;;;;;;;6.43;1.25;;;13.40;99.90;;;;;;7326970;32;20129;-64
2021/12/31 03:45:53;;;;;;;4.07;0.90;;;13.30;99.90;;;;;;7325363;32;20609;-64
2021/12/31 03:49:55;;;;;;;3.47;1.00;;;13.30;99.90;;;;;;7332104;32;20111;-64
2021/12/31 03:53:57;;;;;;;4.10;0.93;;;13.40;99.90;;;;;;7325552;32;20633;-63
2021/12/31 03:57:58;;;;;;;2.37;0.85;;;13.50;99.90;;;;;;7328928;32;20424;-63
2021/12/31 04:02:00;;;;;;;4.57;1.20;;;13.40;99.90;;;;;;7339420;32;20111;-64
2021/12/31 04:06:02;;;;;;;4.35;0.90;;;13.40;99.90;;;;;;7333806;32;20599;-63
2021/12/31 04:10:04;;;;;;;3.42;0.88;;;13.40;99.90;;;;;;7336475;32;20140;-63
2021/12/31 04:14:06;;;;;;;4.28;1.12;;;13.40;99.90;;;;;;7324969;32;20612;-64
2021/12/31 04:18:08;;;;;;;3.12;0.68;;;13.40;99.90;;;;;;7335052;32;20535;-63
2021/12/31 04:22:13;;;;;;;3.87;1.10;;;13.40;99.90;;;;;;7337096;32;20261;-63
2021/12/31 04:26:15;;;;;;;1.90;1.12;;;13.40;99.90;;;;;;7332605;32;20261;-63
2021/12/31 04:30:17;;;;;;;3.50;1.30;;;13.40;99.90;;;;;;7336809;32;20114;-63
2021/12/31 04:34:19;;;;;;;4.78;1.02;;;13.30;99.90;;;;;;7330710;32;20243;-64
2021/12/31 04:38:21;;;;;;;4.20;0.90;;;13.30;99.90;;;;;;7334658;32;20119;-64
2021/12/31 04:42:22;;;;;;;3.65;1.40;;;13.30;99.90;;;;;;7329175;32;20116;-64
2021/12/31 04:46:24;;;;;;;2.67;1.10;;;13.30;99.90;;;;;;7332218;32;20139;-63
2021/12/31 04:50:26;;;;;;;1.87;1.05;;;13.30;99.90;;;;;;7329379;32;20177;-63
2021/12/31 04:54:28;;;;;;;2.50;1.12;;;13.30;99.90;;;;;;7319660;32;20249;-63
2021/12/31 04:58:29;;;;;;;3.10;1.00;;;13.20;99.90;;;;;;7328864;32;20217;-64
2021/12/31 05:02:31;;;;;;;4.37;1.25;;;13.20;99.90;;;;;;7328969;32;20472;-64
2021/12/31 05:06:34;;;;;;;3.40;1.20;;;13.20;99.90;;;;;;7324204;32;20120;-63
2021/12/31 05:10:35;;;;;;;4.45;1.12;;;13.10;99.90;;;;;;7328225;32;20146;-64
2021/12/31 05:14:37;;;;;;;2.90;1.00;;;13.10;99.90;;;;;;7325046;32;20104;-64
2021/12/31 05:18:38;;;;;;;3.65;0.80;;;13.10;99.90;;;;;;7331138;32;20492;-64
2021/12/31 05:22:40;;;;;;;1.45;0.88;;;13.20;99.90;;;;;;7332412;32;20134;-63
2021/12/31 05:26:43;;;;;;;4.72;1.00;;;13.20;99.90;;;;;;7323997;32;20108;-64
2021/12/31 05:30:44;;;;;;;2.67;1.15;;;13.20;99.90;;;;;;7331605;32;20126;-64
2021/12/31 05:34:46;;;;;;;6.40;1.45;;;13.10;99.90;;;;;;7319931;32;20856;-63
2021/12/31 05:38:48;;;;;;;4.87;1.10;;;13.20;99.90;;;;;;7321440;32;20165;-64
2021/12/31 05:42:49;;;;;;;3.22;1.00;;;13.20;99.90;;;;;;7329050;32;20218;-63
2021/12/31 05:46:53;;;;;;;4.05;1.30;;;13.10;99.90;;;;;;7322226;32;20111;-64
2021/12/31 05:51:03;;;;;;;2.80;0.90;;;13.00;99.90;;;;;;7329216;32;20813;-64
2021/12/31 05:55:06;;;;;;;2.37;0.80;;;12.90;99.90;;;;;;7331054;32;20107;-64
2021/12/31 05:59:08;;;;;;;4.43;0.88;;;12.90;99.90;;;;;;7329837;32;20134;-64
2021/12/31 06:03:09;;;;;;;2.65;0.73;;;12.80;99.90;;;;;;7328587;32;20198;-63
2021/12/31 06:07:11;;;;;;;3.50;0.80;;;12.90;99.90;;;;;;7325464;32;20111;-63
2021/12/31 06:11:13;;;;;;;5.87;1.40;;;12.90;99.90;;;;;;7326498;32;20134;-63
2021/12/31 06:15:16;;;;;;;2.85;0.68;;;12.90;99.90;;;;;;7335694;32;20111;-64
2021/12/31 06:19:18;;;;;;;2.80;1.15;;;12.80;99.90;;;;;;7329776;32;20137;-63
2021/12/31 06:23:20;;;;;;;3.60;1.23;;;12.80;99.90;;;;;;7328692;32;20197;-63
2021/12/31 06:27:21;;;;;;;5.90;1.80;;;12.80;99.90;;;;;;7331737;32;20712;-63
2021/12/31 06:31:23;;;;;;;2.85;0.95;;;12.70;99.90;;;;;;7324292;32;20135;-63
2021/12/31 06:35:25;;;;;;;2.85;0.80;;;12.80;99.90;;;;;;7331668;32;20323;-64
2021/12/31 06:39:28;;;;;;;4.15;1.40;;;12.90;99.90;;;;;;7330256;32;20119;-63
2021/12/31 06:43:29;;;;;;;6.85;1.30;;;12.90;99.90;;;;;;7322896;32;20214;-63
2021/12/31 06:47:31;;;;;;;5.55;1.73;;;12.90;99.90;;;;;;7327158;32;20150;-64
2021/12/31 06:51:33;;;;;;;3.58;1.00;;;12.80;99.90;;;;;;7326681;32;20130;-63
2021/12/31 06:55:34;;;;;;;2.58;0.90;;;12.80;99.90;;;;;;7329256;32;20482;-63
2021/12/31 06:59:36;;;;;;;3.60;1.02;;;12.80;99.90;;;;;;7328361;32;20103;-64
2021/12/31 07:03:38;;;;;;;3.35;1.20;;;12.70;99.90;;;;;;7335660;32;20115;-64
2021/12/31 07:07:40;;;;;;;3.17;1.10;;;12.60;99.90;;;;;;7328592;32;20581;-64
2021/12/31 07:11:41;;;;;;;2.20;1.10;;;12.30;99.90;;;;;;7332470;32;20205;-63
2021/12/31 07:15:48;;;;;;;2.85;1.42;;;12.30;99.90;;;;;;7321096;32;20111;-63
2021/12/31 07:19:49;;;;;;;6.50;1.20;;;12.20;99.90;;;;;;7316928;32;20215;-64
2021/12/31 07:23:51;;;;;;;4.07;1.20;;;12.10;99.90;;;;;;7318403;32;20150;-64
2021/12/31 07:27:53;;;;;;;3.62;1.23;;;12.00;99.90;;;;;;7319596;32;20142;-64
2021/12/31 07:31:55;;;;;;;3.55;1.30;;;11.90;99.90;;;;;;7319015;32;20111;-65
2021/12/31 07:35:57;;;;;;;4.70;1.40;;;11.90;99.90;;;;;;7311543;32;20190;-64
2021/12/31 07:40:03;;;;;;;3.25;1.40;;;12.00;99.90;;;;;;7314060;32;20535;-63
2021/12/31 07:44:06;;;;;;;3.42;1.42;;;11.90;99.90;;;;;;7322846;32;20218;-62
2021/12/31 07:48:08;;;;;;;4.80;1.60;;;12.00;99.90;;;;;;7315376;32;20158;-63
2021/12/31 07:52:10;;;;;;;3.95;1.40;;;11.90;99.90;;;;;;7319786;32;20681;-62
2021/12/31 07:56:11;;;;;;;2.78;1.40;;;11.80;99.90;;;;;;7316173;32;20111;-63
2021/12/31 08:00:14;;;;;;;3.12;1.50;;;11.90;99.90;;;;;;7318514;32;20119;-62
2021/12/31 08:04:15;;;;;;;3.12;1.35;;;11.90;99.90;;;;;;7321803;32;20483;-63
2021/12/31 08:08:17;;;;;;;3.85;1.27;;;11.90;99.90;;;;;;7319239;32;20131;-62
2021/12/31 08:12:19;;;;;;;4.60;1.50;;;11.90;99.90;;;;;;7326609;32;20127;-62
2021/12/31 08:16:20;;;;;;;5.28;1.27;;;11.90;99.90;;;;;;7322609;32;20124;-62
2021/12/31 08:20:25;;;;;;;5.00;1.40;;;11.90;99.90;;;;;;7319802;32;20735;-60
2021/12/31 08:24:27;;;;;;;4.70;1.73;;;11.90;99.90;;;;;;7317163;32;20107;-63
2021/12/31 08:28:29;;;;;;;5.25;1.67;;;12.00;99.90;;;;;;7318572;32;20104;-61
2021/12/31 08:32:31;;;;;;;4.65;1.52;;;11.90;99.90;;;;;;7323008;32;20122;-61
2021/12/31 08:36:32;;;;;;;3.33;1.40;;;11.90;99.90;;;;;;7318497;32;20110;-62
2021/12/31 08:40:34;;;;;;;9.52;1.52;;;11.90;99.90;;;;;;7323376;32;20550;-62
2021/12/31 08:44:36;;;;;;;3.80;1.42;;;11.90;99.90;;;;;;7326746;32;20112;-62
2021/12/31 08:48:37;;;;;;;2.87;1.45;;;12.00;99.90;;;;;;7324490;32;20104;-63
2021/12/31 08:52:39;;;;;;;4.43;1.30;;;12.00;99.90;;;;;;7325925;32;20807;-63
2021/12/31 08:56:43;;;;;;;4.70;1.40;;;11.90;99.90;;;;;;7328542;32;20153;-63
2021/12/31 09:00:49;;;;;;;4.30;1.58;;;12.00;99.90;;;;;;7333135;32;20126;-63
2021/12/31 09:04:51;;;;;;;3.95;1.48;;;12.10;99.90;;;;;;7340118;32;20111;-63
2021/12/31 09:08:52;;;;;;;4.60;1.33;;;12.10;99.90;;;;;;7331761;32;20699;-63
2021/12/31 09:12:54;;;;;;;6.70;1.50;;;12.10;99.90;;;;;;7330485;32;20130;-64
2021/12/31 09:16:57;;;;;;;3.42;1.08;;;12.10;99.90;;;;;;7333951;32;22030;-62
2021/12/31 09:20:58;;;;;;;3.30;1.00;;;12.20;99.90;;;;;;7326578;32;20211;-63
2021/12/31 09:25:00;;;;;;;5.12;1.25;;;12.10;99.90;;;;;;7331405;32;20212;-63
2021/12/31 09:29:02;;;;;;;3.45;1.20;;;12.20;99.90;;;;;;7324867;32;20146;-63
2021/12/31 09:33:04;;;;;;;5.43;1.45;;;12.30;99.90;;;;;;7327711;32;20116;-64
2021/12/31 09:37:05;;;;;;;2.58;0.98;;;12.30;99.90;;;;;;7330014;32;20137;-63
2021/12/31 09:41:07;;;;;;;3.53;1.20;;;12.30;99.90;;;;;;7339700;32;20134;-69
2021/12/31 09:45:14;;;;;;;3.67;1.40;;;12.50;99.90;;;;;;7337753;32;20107;-68
2021/12/31 09:49:16;;;;;;;3.50;1.23;;;12.50;99.90;;;;;;7327109;32;20587;-63
2021/12/31 09:53:18;;;;;;;2.95;1.30;;;12.40;99.90;;;;;;7329435;32;20774;-63
2021/12/31 09:57:21;;;;;;;3.97;1.35;;;12.50;99.90;;;;;;7328596;32;20262;-63
2021/12/31 10:01:23;;;;;;;4.85;1.23;;;12.40;99.90;;;;;;7330416;32;20107;-62
2021/12/31 10:05:41;;;;;;;3.67;1.45;;;12.50;99.90;;;;;;7328590;32;20221;-63
2021/12/31 10:10:00;;;;;;;1.60;1.10;;;12.50;99.90;;;;;;7324940;32;20186;-62
2021/12/31 10:14:05;;;;;;;2.45;1.23;;;12.50;99.90;;;;;;7330511;32;20157;-63
2021/12/31 10:18:12;;;;;;;3.30;1.17;;;12.60;99.90;;;;;;7328416;32;20106;-63
2021/12/31 10:22:18;;;;;;;3.10;1.30;;;12.60;99.90;;;;;;7330285;32;20153;-63
2021/12/31 10:26:19;;;;;;;2.30;1.12;;;12.60;99.90;;;;;;7329398;32;20115;-63
2021/12/31 10:30:22;;;;;;;2.53;1.10;;;12.70;99.90;;;;;;7334782;32;20132;-63
2021/12/31 10:34:32;;;;;;;1.90;1.05;;;12.80;99.90;;;;;;7328746;32;20172;-63
2021/12/31 10:38:36;;;;;;;3.33;1.37;;;12.90;99.90;;;;;;7346645;32;20138;-63
2021/12/31 10:42:40;;;;;;;2.17;1.30;;;12.90;99.90;;;;;;7330292;32;20176;-64
2021/12/31 10:46:42;;;;;;;6.20;1.58;;;12.90;99.90;;;;;;7319558;32;20746;-63
2021/12/31 10:50:51;;;;;;;3.45;1.05;;;13.00;99.90;;;;;;7331660;32;20104;-63
2021/12/31 10:55:29;;;;;;;1.73;1.30;;;13.10;99.90;;;;;;7324980;32;20110;-63
2021/12/31 10:59:37;;;;;;;2.78;0.90;;;13.00;99.90;;;;;;7318954;32;20222;-63
2021/12/31 11:03:39;;;;;;;3.90;1.30;;;13.10;99.90;;;;;;7339475;32;20212;-64
2021/12/31 11:07:41;;;;;;;27.40;16.85;;;13.00;99.90;;;;;;7328265;32;20221;-64
2021/12/31 11:12:04;;;;;;;3.33;1.30;;;13.00;99.90;;;;;;7323145;32;20111;-63
2021/12/31 11:16:05;;;;;;;3.92;1.20;;;12.90;99.90;;;;;;7326552;32;20099;-62
2021/12/31 11:20:08;;;;;;;3.40;0.95;;;12.90;99.90;;;;;;7334993;32;20134;-63
2021/12/31 11:24:34;;;;;;;3.47;1.05;;;12.90;99.90;;;;;;7316886;32;20218;-63
2021/12/31 11:28:38;;;;;;;3.25;1.10;;;12.90;99.90;;;;;;7310868;32;20134;-62
2021/12/31 11:32:46;;;;;;;2.33;1.17;;;12.90;99.90;;;;;;7329835;32;20241;-63
2021/12/31 11:36:54;;;;;;;2.70;1.42;;;12.90;99.90;;;;;;7331224;32;20151;-63
2021/12/31 11:41:17;;;;;;;2.45;1.73;;;12.90;99.90;;;;;;7332428;32;20162;-63
2021/12/31 11:45:18;;;;;;;3.45;1.58;;;13.00;99.90;;;;;;7322875;32;20199;-64
2021/12/31 11:49:28;;;;;;;2.15;1.30;;;13.00;99.90;;;;;;7326902;32;20685;-64
2021/12/31 11:53:30;;;;;;;2.50;0.95;;;13.00;99.90;;;;;;7327622;32;20619;-63
2021/12/31 11:57:31;;;;;;;2.75;1.48;;;13.10;99.90;;;;;;7328879;32;20232;-63
2021/12/31 12:01:36;;;;;;;3.33;1.33;;;13.20;99.90;;;;;;7320325;32;20215;-63
2021/12/31 12:05:42;;;;;;;3.47;1.65;;;13.30;99.90;;;;;;7321578;32;20107;-63
2021/12/31 12:09:43;;;;;;;3.75;1.48;;;13.40;99.90;;;;;;7330320;32;20757;-63
2021/12/31 12:13:45;;;;;;;3.00;1.40;;;13.60;99.90;;;;;;7328790;32;20157;-64
2021/12/31 12:17:47;;;;;;;3.28;1.60;;;13.70;99.90;;;;;;7342145;32;20198;-63
2021/12/31 12:21:52;;;;;;;4.15;2.00;;;13.80;99.90;;;;;;7344181;32;20179;-64
2021/12/31 12:25:54;;;;;;;1.92;1.33;;;13.70;99.90;;;;;;7338592;32;20260;-62
2021/12/31 12:29:57;;;;;;;4.03;1.27;;;13.70;99.90;;;;;;7329487;32;20519;-62
2021/12/31 12:33:59;;;;;;;2.28;1.23;;;13.70;99.90;;;;;;7322772;32;20241;-63
2021/12/31 12:38:04;;;;;;;2.03;1.30;;;13.70;99.90;;;;;;7326349;32;20109;-61
2021/12/31 12:42:11;;;;;;;3.83;1.37;;;13.70;99.90;;;;;;7320031;32;20120;-62
2021/12/31 12:46:16;;;;;;;3.78;1.20;;;13.70;99.90;;;;;;7333034;32;20111;-62
2021/12/31 12:50:17;;;;;;;2.65;1.30;;;13.80;99.90;;;;;;7330355;32;20631;-62
2021/12/31 12:54:22;;;;;;;2.65;0.80;;;13.70;99.90;;;;;;7326526;32;20141;-62
2021/12/31 12:58:25;;;;;;;3.08;1.15;;;13.70;99.90;;;;;;7320305;32;22648;-62
2021/12/31 13:02:43;;;;;;;3.42;1.25;;;13.70;99.90;;;;;;7339407;32;20657;-62
2021/12/31 13:06:56;;;;;;;2.40;1.00;;;13.70;99.90;;;;;;7327600;32;20119;-62
2021/12/31 13:11:00;;;;;;;5.10;1.17;;;13.80;99.90;;;;;;7320932;32;20116;-62
2021/12/31 13:15:05;;;;;;;2.78;1.10;;;13.80;99.90;;;;;;7324534;32;20195;-62
2021/12/31 13:19:10;;;;;;;1.87;1.00;;;13.90;99.90;;;;;;7325088;32;20111;-63
2021/12/31 13:23:17;;;;;;;3.83;1.33;;;14.00;99.90;;;;;;7329029;32;20901;-63
2021/12/31 13:27:19;;;;;;;2.35;0.98;;;14.10;99.90;;;;;;7320546;32;20107;-64
2021/12/31 13:31:36;;;;;;;2.97;1.35;;;14.20;99.90;;;;;;7328587;32;20115;-62
2021/12/31 13:35:38;;;;;;;3.17;1.50;;;14.10;99.90;;;;;;7327479;32;20839;-63
2021/12/31 13:39:40;;;;;;;3.12;1.30;;;14.20;99.90;;;;;;7336932;32;20157;-63
2021/12/31 13:43:42;;;;;;;8.80;1.62;;;14.20;99.90;;;;;;7320439;32;20199;-62
2021/12/31 13:47:43;;;;;;;1.98;1.30;;;14.10;99.90;;;;;;7324656;32;20111;-61
2021/12/31 13:51:46;;;;;;;5.10;1.37;;;14.10;99.90;;;;;;7330383;32;20200;-62
2021/12/31 13:55:50;;;;;;;5.55;1.92;;;14.00;99.90;;;;;;7340204;32;20238;-62
2021/12/31 14:00:05;;;;;;;3.90;1.35;;;14.00;99.90;;;;;;7352962;32;20213;-62
2021/12/31 14:04:10;;;;;;;5.12;1.40;;;14.00;99.90;;;;;;7334732;32;20129;-62
2021/12/31 14:08:29;;;;;;;4.25;1.35;;;14.10;99.90;;;;;;7334644;32;20275;-62
2021/12/31 14:12:41;;;;;;;4.22;1.30;;;14.30;99.90;;;;;;7332173;32;20166;-62
2021/12/31 14:16:43;;;;;;;1.80;1.20;;;14.30;99.90;;;;;;7320858;32;20115;-62
2021/12/31 14:20:45;;;;;;;3.33;1.48;;;14.20;99.90;;;;;;7326841;32;20744;-62
2021/12/31 14:24:47;;;;;;;4.62;1.70;;;13.90;99.90;;;;;;7337650;32;20479;-62
2021/12/31 14:28:48;;;;;;;4.53;1.70;;;13.90;99.90;;;;;;7340346;32;20130;-62
2021/12/31 14:32:51;;;;;;;3.05;1.90;;;13.80;99.90;;;;;;7340109;32;20139;-65
2021/12/31 14:36:58;;;;;;;7.10;2.85;;;13.80;99.90;;;;;;7317480;32;20133;-62
2021/12/31 14:41:13;;;;;;;;;;;13.80;99.90;;;;;;7335676;32;20112;-62
2021/12/31 14:45:16;;;;;;;3.20;2.03;;;14.00;99.90;;;;;;7333646;32;20025;-62
2021/12/31 14:49:19;;;;;;;5.32;3.25;;;13.90;99.90;;;;;;7328580;32;20153;-63
2021/12/31 14:53:21;;;;;;;5.47;1.62;;;13.90;99.90;;;;;;7327522;32;20115;-62
2021/12/31 14:57:24;;;;;;;3.10;1.70;;;14.00;99.90;;;;;;7321775;32;20245;-62
2021/12/31 15:01:25;;;;;;;3.72;1.35;;;13.90;99.90;;;;;;7319310;32;20112;-63
2021/12/31 15:05:28;;;;;;;2.85;1.20;;;14.00;99.90;;;;;;7319587;32;20128;-63
2021/12/31 15:09:29;;;;;;;3.12;1.70;;;13.90;99.90;;;;;;7320064;32;20737;-63
2021/12/31 15:13:31;;;;;;;6.03;1.55;;;13.90;99.90;;;;;;7340532;32;20121;-62
2021/12/31 15:17:33;;;;;;;6.18;2.30;;;13.80;99.90;;;;;;7316099;32;20672;-62
2021/12/31 15:21:36;;;;;;;5.87;1.85;;;13.80;99.90;;;;;;7318666;32;20138;-62
2021/12/31 15:25:38;;;;;;;3.78;1.65;;;13.80;99.90;;;;;;7326536;32;20157;-62
2021/12/31 15:29:40;;;;;;;3.53;1.65;;;13.70;99.90;;;;;;7318163;32;20599;-63
2021/12/31 15:33:44;;;;;;;5.37;2.58;;;13.70;99.90;;;;;;7316207;32;20203;-69
2021/12/31 15:37:45;;;;;;;3.83;1.80;;;13.70;99.90;;;;;;7321144;32;20122;-66
2021/12/31 15:41:47;;;;;;;4.00;1.75;;;13.80;99.90;;;;;;7324136;32;20131;-63
2021/12/31 15:45:49;;;;;;;5.03;1.85;;;13.70;99.90;;;;;;7336422;32;20130;-64
2021/12/31 15:49:51;;;;;;;3.50;1.60;;;13.60;99.90;;;;;;7342051;32;20570;-63
2021/12/31 15:53:52;;;;;;;3.12;1.77;;;13.60;99.90;;;;;;7334224;32;20233;-63
2021/12/31 15:57:54;;;;;;;4.62;2.10;;;13.50;99.90;;;;;;7318644;32;20519;-64
2021/12/31 16:01:56;;;;;;;4.72;1.80;;;13.50;99.90;;;;;;7331348;32;20126;-64
2021/12/31 16:05:57;;;;;;;5.28;2.00;;;13.50;99.90;;;;;;7314911;32;20162;-63
2021/12/31 16:09:59;;;;;;;4.80;2.37;;;13.50;99.90;;;;;;7319904;32;20528;-63
2021/12/31 16:14:01;;;;;;;3.53;1.70;;;13.40;99.90;;;;;;7326975;32;20103;-63
2021/12/31 16:18:03;;;;;;;4.07;2.50;;;13.50;99.90;;;;;;7315429;32;20283;-63
2021/12/31 16:22:04;;;;;;;5.85;2.00;;;13.40;99.90;;;;;;7330444;32;20677;-64
2021/12/31 16:26:11;;;;;;;2.85;1.87;;;13.40;99.90;;;;;;7320990;32;20108;-63
2021/12/31 16:30:13;;;;;;;6.95;2.10;;;13.40;99.90;;;;;;7328822;32;20182;-63
2021/12/31 16:34:15;;;;;;;6.43;2.47;;;13.40;99.90;;;;;;7316726;32;20135;-63
2021/12/31 16:38:16;;;;;;;4.05;2.08;;;13.40;99.90;;;;;;7320796;32;20195;-64
2021/12/31 16:42:19;;;;;;;4.72;2.40;;;13.40;99.90;;;;;;7321623;32;20511;-66
2021/12/31 16:46:20;;;;;;;8.30;2.60;;;13.40;99.90;;;;;;7316299;32;20111;-64
2021/12/31 16:50:23;;;;;;;3.20;2.22;;;13.40;99.90;;;;;;7322276;32;20705;-63
2021/12/31 16:54:24;;;;;;;3.85;2.05;;;13.30;99.90;;;;;;7326672;32;20202;-65
2021/12/31 16:58:28;;;;;;;9.55;3.22;;;13.30;99.90;;;;;;7334903;32;20118;-64
2021/12/31 17:02:30;;;;;;;5.32;3.08;;;13.40;99.90;;;;;;7338625;32;20549;-63
2021/12/31 17:06:32;;;;;;;5.40;2.58;;;13.30;99.90;;;;;;7322352;32;20172;-64
2021/12/31 17:10:36;;;;;;;8.30;2.83;;;13.30;99.90;;;;;;7326791;32;20138;-64
2021/12/31 17:14:38;;;;;;;6.05;2.45;;;13.30;99.90;;;;;;7343946;32;20116;-63
2021/12/31 17:18:40;;;;;;;4.07;2.42;;;13.20;99.90;;;;;;7334921;32;20134;-63
2021/12/31 17:22:42;;;;;;;8.82;2.70;;;13.10;99.90;;;;;;7332347;32;20446;-64
2021/12/31 17:26:44;;;;;;;7.93;2.62;;;13.10;99.90;;;;;;7332736;32;20112;-64
2021/12/31 17:30:45;;;;;;;5.68;2.83;;;13.10;99.90;;;;;;7318832;32;20676;-65
2021/12/31 17:34:50;;;;;;;4.12;2.40;;;13.10;99.90;;;;;;7322015;32;20103;-63
2021/12/31 17:38:52;;;;;;;7.93;2.85;;;13.10;99.90;;;;;;7323616;32;20126;-64
2021/12/31 17:42:54;;;;;;;9.82;2.80;;;13.10;99.90;;;;;;7324078;32;20111;-64
2021/12/31 17:46:56;;;;;;;4.47;2.62;;;13.00;99.90;;;;;;7332496;32;20490;-64
2021/12/31 17:50:57;;;;;;;7.97;3.60;;;13.00;99.90;;;;;;7330630;32;20201;-66
2021/12/31 17:55:00;;;;;;;11.10;8.57;;;13.00;99.90;;;;;;7326803;32;20114;-63
2021/12/31 17:59:01;;;;;;;8.90;5.15;;;13.00;99.90;;;;;;7325473;32;20136;-63
2021/12/31 18:03:03;;;;;;;7.72;4.30;;;12.90;99.90;;;;;;7319450;32;20230;-63
2021/12/31 18:07:05;;;;;;;6.20;3.78;;;12.90;99.90;;;;;;7328360;32;20217;-65
2021/12/31 18:11:08;;;;;;;6.55;3.87;;;12.90;99.90;;;;;;7332870;32;20178;-63
2021/12/31 18:15:10;;;;;;;6.43;3.58;;;12.90;99.90;;;;;;7324885;32;20279;-64
2021/12/31 18:19:12;;;;;;;6.53;3.58;;;12.80;99.90;;;;;;7319865;32;20245;-63
2021/12/31 18:23:15;;;;;;;8.30;3.60;;;12.90;99.90;;;;;;7330325;32;20129;-63
2021/12/31 18:27:16;;;;;;;7.25;4.03;;;12.90;99.90;;;;;;7324366;32;20128;-63
2021/12/31 18:31:18;;;;;;;6.72;3.80;;;12.80;99.90;;;;;;7320690;32;20185;-63
2021/12/31 18:35:20;;;;;;;6.68;3.65;;;12.90;99.90;;;;;;7329055;32;20111;-63
2021/12/31 18:39:22;;;;;;;9.77;4.00;;;12.90;99.90;;;;;;7332274;32;20199;-63
2021/12/31 18:43:23;;;;;;;7.15;4.05;;;12.90;99.90;;;;;;7322414;32;20202;-63
2021/12/31 18:47:34;;;;;;;8.75;3.78;;;12.80;99.90;;;;;;7325568;32;20099;-63
2021/12/31 18:51:36;;;;;;;5.43;3.70;;;12.80;99.90;;;;;;7326493;32;20108;-63
2021/12/31 18:55:38;;;;;;;11.05;4.28;;;12.90;99.90;;;;;;7326342;32;20134;-64
2021/12/31 18:59:39;;;;;;;6.68;3.75;;;12.80;99.90;;;;;;7326488;32;20142;-63
2021/12/31 19:03:41;;;;;;;9.13;4.40;;;12.90;99.90;;;;;;7331632;32;20112;-64
2021/12/31 19:07:43;;;;;;;8.10;4.22;;;12.90;99.90;;;;;;7335308;32;20111;-63
2021/12/31 19:11:45;;;;;;;9.85;5.82;;;12.90;99.90;;;;;;7326175;32;20119;-63
2021/12/31 19:15:46;;;;;;;5.78;4.40;;;12.90;99.90;;;;;;7326561;32;20131;-63
2021/12/31 19:19:52;;;;;;;9.05;4.68;;;12.90;99.90;;;;;;7325674;32;20111;-63
2021/12/31 19:23:54;;;;;;;9.40;3.97;;;13.00;99.90;;;;;;7322521;32;20214;-64
2021/12/31 19:27:55;;;;;;;6.03;3.60;;;12.90;99.90;;;;;;7324424;32;20116;-66
2021/12/31 19:31:57;;;;;;;5.85;3.15;;;12.90;99.90;;;;;;7331159;32;20115;-64
2021/12/31 19:35:59;;;;;;;4.68;3.10;;;13.00;99.90;;;;;;7327386;32;20134;-64
2021/12/31 19:40:01;;;;;;;7.25;3.22;;;12.90;99.90;;;;;;7323159;32;20123;-64
2021/12/31 19:44:03;;;;;;;9.40;3.25;;;12.90;99.90;;;;;;7324688;32;20111;-64
2021/12/31 19:48:07;;;;;;;8.18;4.30;;;12.90;99.90;;;;;;7330515;32;20198;-63
2021/12/31 19:52:09;;;;;;;8.25;3.25;;;12.90;99.90;;;;;;7332036;32;20405;-63
2021/12/31 19:56:11;;;;;;;8.30;4.00;;;12.90;99.90;;;;;;7331294;32;20573;-64
2021/12/31 20:00:19;;;;;;;6.07;3.35;;;12.90;99.90;;;;;;7326518;32;20123;-64
2021/12/31 20:04:20;;;;;;;8.73;4.32;;;12.90;99.90;;;;;;7326242;32;20135;-64
2021/12/31 20:08:23;;;;;;;7.12;4.50;;;12.90;99.90;;;;;;7338084;32;20130;-64
2021/12/31 20:12:24;;;;;;;6.72;3.75;;;12.90;99.90;;;;;;7339235;32;20233;-64
2021/12/31 20:16:27;;;;;;;8.20;4.05;;;12.90;99.90;;;;;;7325389;32;20230;-63
2021/12/31 20:20:29;;;;;;;7.32;3.65;;;12.90;99.90;;;;;;7336038;32;20104;-64
2021/12/31 20:24:32;;;;;;;7.43;4.07;;;12.90;99.90;;;;;;7330634;32;20859;-64
2021/12/31 20:28:33;;;;;;;8.05;3.45;;;13.00;99.90;;;;;;7324724;32;20107;-64
2021/12/31 20:32:35;;;;;;;7.90;3.87;;;13.00;99.90;;;;;;7335548;32;20620;-64
2021/12/31 20:36:37;;;;;;;10.63;3.87;;;12.90;99.90;;;;;;7330165;32;20163;-64
2021/12/31 20:40:38;;;;;;;7.53;4.45;;;12.90;99.90;;;;;;7332960;32;20130;-64
2021/12/31 20:44:41;;;;;;;6.68;3.97;;;12.90;99.90;;;;;;7337122;32;20112;-64
2021/12/31 20:48:43;;;;;;;7.45;3.95;;;13.00;99.90;;;;;;7330365;32;20119;-64
2021/12/31 20:52:44;;;;;;;10.40;4.43;;;12.90;99.90;;;;;;7330247;32;20289;-64
2021/12/31 20:56:46;;;;;;;8.75;4.47;;;13.10;99.90;;;;;;7324785;32;20112;-66
2021/12/31 21:00:51;;;;;;;8.77;4.85;;;13.20;99.90;;;;;;7333267;32;20199;-66
2021/12/31 21:04:53;;;;;;;12.05;5.68;;;13.30;99.90;;;;;;7327809;32;20108;-66
2021/12/31 21:08:55;;;;;;;9.70;4.97;;;13.20;99.90;;;;;;7331128;32;20198;-63
2021/12/31 21:12:57;;;;;;;6.43;4.68;;;13.20;99.90;;;;;;7327924;32;20202;-65